createdAt,value
2022-11-05T00:00:19.761Z,13.00
2022-11-05T00:03:05.834Z,13.00
2022-11-05T00:05:51.645Z,13.00
2022-11-05T00:08:37.530Z,13.00
2022-11-05T00:11:04.983Z,13.00
2022-11-05T00:13:50.928Z,13.00
2022-11-05T00:16:36.966Z,12.90
2022-11-05T00:19:07.491Z,12.90
2022-11-05T00:21:55.149Z,12.90
2022-11-05T00:24:41.698Z,12.90
2022-11-05T00:27:09.636Z,12.80
2022-11-05T00:29:37.583Z,12.80
2022-11-05T00:32:05.713Z,12.90
2022-11-05T00:34:33.319Z,12.90
2022-11-05T00:38:01.321Z,12.90
2022-11-05T00:40:34.887Z,13.00
2022-11-05T00:43:20.804Z,13.10
2022-11-05T00:45:48.338Z,13.10
2022-11-05T00:48:34.636Z,13.10
2022-11-05T00:51:02.185Z,13.10
2022-11-05T00:53:29.564Z,13.10
2022-11-05T00:55:56.897Z,13.10
2022-11-05T00:58:24.884Z,13.10
2022-11-05T01:00:54.590Z,13.20
2022-11-05T01:03:24.538Z,13.10
2022-11-05T01:05:55.528Z,13.10
2022-11-05T01:08:25.962Z,13.10
2022-11-05T01:10:56.208Z,13.20
2022-11-05T01:13:27.252Z,13.10
2022-11-05T01:15:55.815Z,13.10
2022-11-05T01:18:24.432Z,13.10
2022-11-05T01:20:51.803Z,13.10
2022-11-05T01:23:19.573Z,13.10
2022-11-05T01:25:47.119Z,13.10
2022-11-05T01:28:14.451Z,13.10
2022-11-05T01:30:41.811Z,13.10
2022-11-05T01:33:09.697Z,13.10
2022-11-05T01:35:39.136Z,13.10
2022-11-05T01:38:06.430Z,13.00
2022-11-05T01:40:33.819Z,13.00
2022-11-05T01:43:01.143Z,13.10
2022-11-05T01:45:28.992Z,13.10
2022-11-05T01:47:59.392Z,13.00
2022-11-05T01:51:01.560Z,13.10
2022-11-05T01:53:31.701Z,13.10
2022-11-05T01:56:22.647Z,13.10
2022-11-05T01:58:53.462Z,13.10
2022-11-05T02:01:21.008Z,13.10
2022-11-05T02:03:50.145Z,13.10
2022-11-05T02:06:17.879Z,13.20
2022-11-05T02:08:58.505Z,13.10
2022-11-05T02:11:26.050Z,13.20
2022-11-05T02:13:53.441Z,13.10
2022-11-05T02:16:20.754Z,13.10
2022-11-05T02:19:29.066Z,13.10
2022-11-05T02:22:14.450Z,13.20
2022-11-05T02:24:41.763Z,13.20
2022-11-05T02:27:43.015Z,13.20
2022-11-05T02:30:26.138Z,13.20
2022-11-05T02:33:00.017Z,13.20
2022-11-05T02:35:44.869Z,13.20
2022-11-05T02:38:32.437Z,13.10
2022-11-05T02:41:13.314Z,13.10
2022-11-05T02:44:03.820Z,13.00
2022-11-05T02:46:38.402Z,13.00
2022-11-05T02:49:36.564Z,13.00
2022-11-05T02:52:14.058Z,12.90
2022-11-05T02:54:47.749Z,12.90
2022-11-05T02:57:15.154Z,12.90
2022-11-05T02:59:42.412Z,12.90
2022-11-05T03:02:09.893Z,12.90
2022-11-05T03:04:37.423Z,12.80
2022-11-05T03:07:35.389Z,12.80
2022-11-05T03:10:23.537Z,12.80
2022-11-05T03:13:19.359Z,12.80
2022-11-05T03:16:06.131Z,12.70
2022-11-05T03:18:43.227Z,12.70
2022-11-05T03:21:22.078Z,12.70
2022-11-05T03:23:49.279Z,12.70
2022-11-05T03:26:26.543Z,12.70
2022-11-05T03:29:01.735Z,12.70
2022-11-05T03:31:31.367Z,12.80
2022-11-05T03:34:01.020Z,12.80
2022-11-05T03:36:35.382Z,12.80
2022-11-05T03:39:06.475Z,12.80
2022-11-05T03:41:35.483Z,12.80
2022-11-05T03:44:06.874Z,12.90
2022-11-05T03:46:41.139Z,12.90
2022-11-05T03:49:12.933Z,13.00
2022-11-05T03:51:49.587Z,13.00
2022-11-05T03:54:17.038Z,13.10
2022-11-05T03:57:02.636Z,13.10
2022-11-05T03:59:32.162Z,13.10
2022-11-05T04:01:59.627Z,13.00
2022-11-05T04:04:27.131Z,13.00
2022-11-05T04:07:13.230Z,13.00
2022-11-05T04:09:58.796Z,13.00
2022-11-05T04:12:44.769Z,13.00
2022-11-05T04:15:12.050Z,13.00
2022-11-05T04:17:39.309Z,13.10
2022-11-05T04:20:25.303Z,13.10
2022-11-05T04:23:25.328Z,13.10
2022-11-05T04:25:52.698Z,13.10
2022-11-05T04:28:19.922Z,13.10
2022-11-05T04:30:47.341Z,13.10
2022-11-05T04:33:16.782Z,13.10
2022-11-05T04:35:48.780Z,13.00
2022-11-05T04:38:20.228Z,13.00
2022-11-05T04:40:48.415Z,13.00
2022-11-05T04:43:19.046Z,13.00
2022-11-05T04:45:46.707Z,12.90
2022-11-05T04:48:14.083Z,12.90
2022-11-05T04:50:41.441Z,12.90
2022-11-05T04:53:09.006Z,12.80
2022-11-05T04:55:36.548Z,12.80
2022-11-05T04:58:03.883Z,12.80
2022-11-05T05:00:31.234Z,12.70
2022-11-05T05:02:58.538Z,12.70
2022-11-05T05:05:25.943Z,12.60
2022-11-05T05:07:53.410Z,12.60
2022-11-05T05:10:20.767Z,12.60
2022-11-05T05:12:48.519Z,12.50
2022-11-05T05:15:15.906Z,12.50
2022-11-05T05:17:43.333Z,12.40
2022-11-05T05:20:28.986Z,12.40
2022-11-05T05:22:56.315Z,12.30
2022-11-05T05:25:23.701Z,12.30
2022-11-05T05:27:51.271Z,12.30
2022-11-05T05:30:18.661Z,12.30
2022-11-05T05:32:46.018Z,12.30
2022-11-05T05:35:13.354Z,12.20
2022-11-05T05:37:40.805Z,12.20
2022-11-05T05:40:08.968Z,12.10
2022-11-05T05:42:41.773Z,12.10
2022-11-05T05:45:11.136Z,12.10
2022-11-05T05:47:38.866Z,12.00
2022-11-05T05:50:06.596Z,12.00
2022-11-05T05:52:34.150Z,12.00
2022-11-05T05:55:01.448Z,12.00
2022-11-05T05:57:28.772Z,12.00
2022-11-05T05:59:56.181Z,11.90
2022-11-05T06:02:23.813Z,11.90
2022-11-05T06:04:51.208Z,11.90
2022-11-05T06:07:18.541Z,11.90
2022-11-05T06:09:45.971Z,11.90
2022-11-05T06:12:13.347Z,11.90
2022-11-05T06:14:40.755Z,11.90
2022-11-05T06:17:08.277Z,11.80
2022-11-05T06:19:35.674Z,11.80
2022-11-05T06:22:02.932Z,11.80
2022-11-05T06:24:30.582Z,11.80
2022-11-05T06:26:58.265Z,11.80
2022-11-05T06:29:25.649Z,11.80
2022-11-05T06:31:53.058Z,11.80
2022-11-05T06:34:20.540Z,11.70
2022-11-05T06:36:47.924Z,11.70
2022-11-05T06:39:15.231Z,11.80
2022-11-05T06:42:11.809Z,11.80
2022-11-05T06:44:31.240Z,11.80
2022-11-05T06:46:58.725Z,11.90
2022-11-05T06:49:26.051Z,11.90
2022-11-05T06:51:53.512Z,12.00
2022-11-05T06:54:21.381Z,12.10
2022-11-05T06:56:48.837Z,12.20
2022-11-05T06:59:16.285Z,12.30
2022-11-05T07:01:43.773Z,12.40
2022-11-05T07:04:12.689Z,12.50
2022-11-05T07:06:40.040Z,12.60
2022-11-05T07:09:07.403Z,12.70
2022-11-05T07:11:34.715Z,12.80
2022-11-05T07:14:02.130Z,13.00
2022-11-05T07:16:29.792Z,13.10
2022-11-05T07:18:57.430Z,13.10
2022-11-05T07:21:24.939Z,13.30
2022-11-05T07:23:52.334Z,13.40
2022-11-05T07:26:19.657Z,13.50
2022-11-05T07:28:46.929Z,13.60
2022-11-05T07:31:14.334Z,13.60
2022-11-05T07:33:41.648Z,13.70
2022-11-05T07:36:09.486Z,13.80
2022-11-05T07:38:36.780Z,13.90
2022-11-05T07:41:04.164Z,14.00
2022-11-05T07:43:31.508Z,14.10
2022-11-05T07:45:59.249Z,14.20
2022-11-05T07:48:26.538Z,14.30
2022-11-05T07:50:53.820Z,14.40
2022-11-05T07:53:21.253Z,14.50
2022-11-05T07:55:48.655Z,14.50
2022-11-05T07:58:16.005Z,14.60
2022-11-05T08:00:43.573Z,14.70
2022-11-05T08:03:14.538Z,14.70
2022-11-05T08:05:47.152Z,14.80
2022-11-05T08:08:16.759Z,14.90
2022-11-05T08:10:44.072Z,14.90
2022-11-05T08:13:12.279Z,15.00
2022-11-05T08:15:40.814Z,15.00
2022-11-05T08:18:12.071Z,15.10
2022-11-05T08:20:41.417Z,15.10
2022-11-05T08:23:09.553Z,15.20
2022-11-05T08:25:37.182Z,15.20
2022-11-05T08:28:07.773Z,15.40
2022-11-05T08:30:35.811Z,15.50
2022-11-05T08:33:06.203Z,15.70
2022-11-05T08:35:35.226Z,15.80
2022-11-05T08:38:05.131Z,16.10
2022-11-05T08:40:34.677Z,16.30
2022-11-05T08:43:03.831Z,16.60
2022-11-05T08:45:31.524Z,16.70
2022-11-05T08:48:13.129Z,16.90
2022-11-05T08:50:40.979Z,17.10
2022-11-05T08:53:09.904Z,17.10
2022-11-05T08:55:38.552Z,17.00
2022-11-05T08:58:16.062Z,16.90
2022-11-05T09:00:46.843Z,16.80
2022-11-05T09:03:15.110Z,16.60
2022-11-05T09:05:43.273Z,16.50
2022-11-05T09:08:19.066Z,16.40
2022-11-05T09:10:47.491Z,16.30
2022-11-05T09:13:19.445Z,16.40
2022-11-05T09:15:49.119Z,16.40
2022-11-05T09:18:18.034Z,16.50
2022-11-05T09:20:45.768Z,16.60
2022-11-05T09:23:16.382Z,16.70
2022-11-05T09:25:44.624Z,16.70
2022-11-05T09:28:20.550Z,16.90
2022-11-05T09:30:50.028Z,17.10
2022-11-05T09:33:19.510Z,17.30
2022-11-05T09:35:46.958Z,17.40
2022-11-05T09:38:14.382Z,17.70
2022-11-05T09:41:09.221Z,18.00
2022-11-05T09:43:48.616Z,18.30
2022-11-05T09:46:26.295Z,18.80
2022-11-05T09:49:12.338Z,19.40
2022-11-05T09:51:40.729Z,20.40
2022-11-05T09:54:10.720Z,21.50
2022-11-05T09:56:41.272Z,22.80
2022-11-05T09:59:22.662Z,24.30
2022-11-05T10:01:52.357Z,25.80
2022-11-05T10:04:23.709Z,26.90
2022-11-05T10:07:02.897Z,28.10
2022-11-05T10:09:36.215Z,29.10
2022-11-05T10:12:14.338Z,30.00
2022-11-05T10:14:48.621Z,30.70
2022-11-05T10:17:26.234Z,31.50
2022-11-05T10:20:03.294Z,31.90
2022-11-05T10:22:30.625Z,32.10
2022-11-05T10:24:57.939Z,32.70
2022-11-05T10:27:37.583Z,33.00
2022-11-05T10:30:05.495Z,33.60
2022-11-05T10:32:39.382Z,34.10
2022-11-05T10:35:11.503Z,34.30
2022-11-05T10:37:40.961Z,34.40
2022-11-05T10:40:33.839Z,34.60
2022-11-05T10:43:06.893Z,34.90
2022-11-05T10:45:52.635Z,35.30
2022-11-05T10:48:28.355Z,35.50
2022-11-05T10:50:56.238Z,35.20
2022-11-05T10:53:34.927Z,35.30
2022-11-05T10:56:04.550Z,36.10
2022-11-05T10:58:35.275Z,36.50
2022-11-05T11:01:07.437Z,37.00
2022-11-05T11:03:52.731Z,37.50
2022-11-05T11:06:37.963Z,37.50
2022-11-05T11:09:26.381Z,37.70
2022-11-05T11:12:05.504Z,38.30
2022-11-05T11:14:35.012Z,38.70
2022-11-05T11:17:27.968Z,38.30
2022-11-05T11:20:22.321Z,39.20
2022-11-05T11:22:59.022Z,39.50
2022-11-05T11:25:29.955Z,39.80
2022-11-05T11:28:03.720Z,40.20
2022-11-05T11:30:31.756Z,40.60
2022-11-05T11:33:07.782Z,40.80
2022-11-05T11:35:37.941Z,41.20
2022-11-05T11:38:06.945Z,41.30
2022-11-05T11:40:38.686Z,41.40
2022-11-05T11:43:17.503Z,41.50
2022-11-05T11:45:54.215Z,41.90
2022-11-05T11:48:29.606Z,42.20
2022-11-05T11:50:58.698Z,42.50
2022-11-05T11:53:34.486Z,42.00
2022-11-05T11:56:14.743Z,42.00
2022-11-05T11:58:46.956Z,42.20
2022-11-05T12:01:32.563Z,41.80
2022-11-05T12:04:30.422Z,41.80
2022-11-05T12:07:54.571Z,41.20
2022-11-05T12:10:34.351Z,41.40
2022-11-05T12:13:14.195Z,41.60
2022-11-05T12:16:04.735Z,41.00
2022-11-05T12:18:45.434Z,41.50
2022-11-05T12:21:41.098Z,41.40
2022-11-05T12:24:34.539Z,41.30
2022-11-05T12:27:07.645Z,41.10
2022-11-05T12:30:04.036Z,41.20
2022-11-05T12:33:05.578Z,41.10
2022-11-05T12:35:44.115Z,41.30
2022-11-05T12:38:53.808Z,41.60
2022-11-05T12:41:33.860Z,41.40
2022-11-05T12:44:47.628Z,41.30
2022-11-05T12:47:36.410Z,40.60
2022-11-05T12:50:12.663Z,39.30
2022-11-05T12:52:57.447Z,39.90
2022-11-05T12:55:27.299Z,40.00
2022-11-05T12:58:01.143Z,40.10
2022-11-05T13:00:30.451Z,40.10
2022-11-05T13:03:00.768Z,40.20
2022-11-05T13:05:36.552Z,40.30
2022-11-05T13:08:07.532Z,40.60
2022-11-05T13:10:51.787Z,40.00
2022-11-05T13:13:31.241Z,38.10
2022-11-05T13:16:21.578Z,36.30
2022-11-05T13:19:18.016Z,34.50
2022-11-05T13:21:53.682Z,32.10
2022-11-05T13:24:25.469Z,30.10
2022-11-05T13:27:24.801Z,28.40
2022-11-05T13:29:56.985Z,27.20
2022-11-05T13:32:43.738Z,26.20
2022-11-05T13:35:37.766Z,25.10
2022-11-05T13:38:27.597Z,24.40
2022-11-05T13:40:57.590Z,24.20
2022-11-05T13:43:27.705Z,24.00
2022-11-05T13:46:05.829Z,23.80
2022-11-05T13:48:43.607Z,23.70
2022-11-05T13:51:34.767Z,23.60
2022-11-05T13:54:17.031Z,23.50
2022-11-05T13:56:53.518Z,23.30
2022-11-05T13:59:48.348Z,23.30
2022-11-05T14:02:21.556Z,23.30
2022-11-05T14:04:50.486Z,23.20
2022-11-05T14:07:17.640Z,22.90
2022-11-05T14:09:45.812Z,22.80
2022-11-05T14:12:46.606Z,22.80
2022-11-05T14:15:24.571Z,22.50
2022-11-05T14:18:04.318Z,22.40
2022-11-05T14:20:31.846Z,22.30
2022-11-05T14:23:17.675Z,22.30
2022-11-05T14:25:45.153Z,22.30
2022-11-05T14:28:38.943Z,22.30
2022-11-05T14:31:47.223Z,22.40
2022-11-05T14:34:15.148Z,22.30
2022-11-05T14:36:44.846Z,22.10
2022-11-05T14:39:31.020Z,22.00
2022-11-05T14:42:03.620Z,21.90
2022-11-05T14:44:34.189Z,21.90
2022-11-05T14:47:07.788Z,21.80
2022-11-05T14:49:53.133Z,21.70
2022-11-05T14:52:21.053Z,21.60
2022-11-05T14:54:58.290Z,21.60
2022-11-05T14:57:41.792Z,21.40
2022-11-05T15:00:44.614Z,21.40
2022-11-05T15:03:56.231Z,21.30
2022-11-05T15:06:25.367Z,21.20
2022-11-05T15:09:16.996Z,21.20
2022-11-05T15:12:02.397Z,21.10
2022-11-05T15:15:01.993Z,21.00
2022-11-05T15:17:33.220Z,20.90
2022-11-05T15:20:06.744Z,20.90
2022-11-05T15:22:40.353Z,20.70
2022-11-05T15:25:16.261Z,20.60
2022-11-05T15:28:06.680Z,20.50
2022-11-05T15:30:34.169Z,20.40
2022-11-05T15:33:17.455Z,20.20
2022-11-05T15:35:44.862Z,20.10
2022-11-05T15:38:29.387Z,20.10
2022-11-05T15:40:59.066Z,20.20
2022-11-05T15:43:26.423Z,20.20
2022-11-05T15:46:14.493Z,20.20
2022-11-05T15:48:46.248Z,20.10
2022-11-05T15:51:13.662Z,20.10
2022-11-05T15:54:02.187Z,20.00
2022-11-05T15:56:33.315Z,20.00
2022-11-05T15:59:17.072Z,19.90
2022-11-05T16:02:18.622Z,19.80
2022-11-05T16:04:49.152Z,19.70
2022-11-05T16:07:17.286Z,19.60
2022-11-05T16:09:56.839Z,19.60
2022-11-05T16:12:35.603Z,19.60
2022-11-05T16:15:08.877Z,19.50
2022-11-05T16:17:50.582Z,19.50
2022-11-05T16:20:22.866Z,19.50
2022-11-05T16:22:53.386Z,19.40
2022-11-05T16:25:41.485Z,19.40
2022-11-05T16:28:29.040Z,19.30
2022-11-05T16:30:58.668Z,19.20
2022-11-05T16:33:32.636Z,19.10
2022-11-05T16:36:00.049Z,19.10
2022-11-05T16:38:27.973Z,19.10
2022-11-05T16:40:55.242Z,19.10
2022-11-05T16:43:26.321Z,19.10
2022-11-05T16:45:55.636Z,18.90
2022-11-05T16:48:23.219Z,18.90
2022-11-05T16:50:50.639Z,18.80
2022-11-05T16:53:18.127Z,18.70
2022-11-05T16:55:46.535Z,18.70
2022-11-05T16:58:21.880Z,18.60
2022-11-05T17:00:50.955Z,18.60
2022-11-05T17:03:18.647Z,18.50
2022-11-05T17:05:46.451Z,18.30
2022-11-05T17:08:14.198Z,18.20
2022-11-05T17:10:42.010Z,18.10
2022-11-05T17:13:17.947Z,18.00
2022-11-05T17:15:48.259Z,17.90
2022-11-05T17:18:18.750Z,17.80
2022-11-05T17:20:51.790Z,17.70
2022-11-05T17:23:21.650Z,17.70
2022-11-05T17:25:54.684Z,17.60
2022-11-05T17:28:22.649Z,17.60
2022-11-05T17:30:52.946Z,17.50
2022-11-05T17:33:22.889Z,17.40
2022-11-05T17:35:51.497Z,17.30
2022-11-05T17:38:19.771Z,17.30
2022-11-05T17:40:47.759Z,17.20
2022-11-05T17:43:16.129Z,17.20
2022-11-05T17:45:47.281Z,17.10
2022-11-05T17:48:15.526Z,17.00
2022-11-05T17:50:48.067Z,17.00
2022-11-05T17:53:17.164Z,17.00
2022-11-05T17:55:45.728Z,17.00
2022-11-05T17:58:13.510Z,16.90
2022-11-05T18:00:42.491Z,16.90
2022-11-05T18:03:11.619Z,16.80
2022-11-05T18:05:40.316Z,16.70
2022-11-05T18:08:08.743Z,16.70
2022-11-05T18:10:40.647Z,16.60
2022-11-05T18:13:08.226Z,16.50
2022-11-05T18:15:38.016Z,16.50
2022-11-05T18:18:05.450Z,16.40
2022-11-05T18:20:33.095Z,16.30
2022-11-05T18:23:00.445Z,16.30
2022-11-05T18:25:27.784Z,16.30
2022-11-05T18:27:55.153Z,16.20
2022-11-05T18:30:22.481Z,16.20
2022-11-05T18:32:51.084Z,16.20
2022-11-05T18:35:18.472Z,16.20
2022-11-05T18:37:46.145Z,16.20
2022-11-05T18:40:16.815Z,16.20
2022-11-05T18:42:50.989Z,16.10
2022-11-05T18:45:18.496Z,16.10
2022-11-05T18:47:48.488Z,16.00
2022-11-05T18:50:15.887Z,16.00
2022-11-05T18:52:43.982Z,15.90
2022-11-05T18:55:11.343Z,15.90
2022-11-05T18:57:41.651Z,15.90
2022-11-05T19:00:09.769Z,15.80
2022-11-05T19:02:37.293Z,15.80
2022-11-05T19:05:28.022Z,15.80
2022-11-05T19:07:52.449Z,15.70
2022-11-05T19:10:19.790Z,15.70
2022-11-05T19:12:47.212Z,15.70
2022-11-05T19:15:14.533Z,15.70
2022-11-05T19:17:41.890Z,15.70
2022-11-05T19:20:09.661Z,15.60
2022-11-05T19:22:37.174Z,15.60
2022-11-05T19:25:05.573Z,15.50
2022-11-05T19:27:34.589Z,15.50
2022-11-05T19:30:02.463Z,15.40
2022-11-05T19:32:29.807Z,15.40
2022-11-05T19:34:57.087Z,15.30
2022-11-05T19:37:24.388Z,15.30
2022-11-05T19:39:52.062Z,15.30
2022-11-05T19:42:19.321Z,15.30
2022-11-05T19:44:46.624Z,15.20
2022-11-05T19:47:13.972Z,15.30
2022-11-05T19:49:41.352Z,15.20
2022-11-05T19:52:08.682Z,15.30
2022-11-05T19:54:36.109Z,15.30
2022-11-05T19:57:03.573Z,15.30
2022-11-05T19:59:30.949Z,15.30
2022-11-05T20:01:58.508Z,15.20
2022-11-05T20:04:26.001Z,15.10
2022-11-05T20:06:53.430Z,15.10
2022-11-05T20:09:22.437Z,15.00
2022-11-05T20:11:53.983Z,14.90
2022-11-05T20:14:21.334Z,14.90
2022-11-05T20:16:49.616Z,14.80
2022-11-05T20:19:19.200Z,14.80
2022-11-05T20:21:47.021Z,14.80
2022-11-05T20:24:22.387Z,14.80
2022-11-05T20:26:55.457Z,14.80
2022-11-05T20:29:24.041Z,14.80
2022-11-05T20:31:52.569Z,14.80
2022-11-05T20:34:20.106Z,14.70
2022-11-05T20:36:47.427Z,14.80
2022-11-05T20:39:15.087Z,14.80
2022-11-05T20:41:42.516Z,14.80
2022-11-05T20:44:10.155Z,14.80
2022-11-05T20:46:37.528Z,14.80
2022-11-05T20:49:04.887Z,14.70
2022-11-05T20:51:32.175Z,14.70
2022-11-05T20:54:01.128Z,14.60
2022-11-05T20:56:34.717Z,14.60
2022-11-05T20:59:02.865Z,14.50
2022-11-05T21:01:32.463Z,14.50
2022-11-05T21:04:00.068Z,14.50
2022-11-05T21:06:27.797Z,14.50
2022-11-05T21:08:58.933Z,14.50
2022-11-05T21:11:26.663Z,14.50
2022-11-05T21:13:54.773Z,14.50
2022-11-05T21:16:22.331Z,14.40
2022-11-05T21:18:49.715Z,14.40
2022-11-05T21:21:19.314Z,14.40
2022-11-05T21:23:47.188Z,14.40
2022-11-05T21:26:16.833Z,14.40
2022-11-05T21:28:44.234Z,14.40
2022-11-05T21:31:11.695Z,14.40
2022-11-05T21:33:39.223Z,14.30
2022-11-05T21:36:12.623Z,14.30
2022-11-05T21:38:40.263Z,14.30
2022-11-05T21:41:08.768Z,14.30
2022-11-05T21:43:37.811Z,14.30
2022-11-05T21:46:05.518Z,14.20
2022-11-05T21:48:33.981Z,14.20
2022-11-05T21:51:19.884Z,14.20
2022-11-05T21:54:05.735Z,14.10
2022-11-05T21:56:52.426Z,14.10
2022-11-05T21:59:40.977Z,14.00
2022-11-05T22:02:11.323Z,14.00
2022-11-05T22:04:41.572Z,13.90
2022-11-05T22:07:11.532Z,13.90
2022-11-05T22:09:42.451Z,13.80
2022-11-05T22:12:10.547Z,13.80
2022-11-05T22:14:38.003Z,13.80
2022-11-05T22:17:05.767Z,13.70
2022-11-05T22:19:33.754Z,13.80
2022-11-05T22:22:01.319Z,13.80
2022-11-05T22:24:30.532Z,13.80
2022-11-05T22:26:59.802Z,13.80
2022-11-05T22:29:28.064Z,13.80
2022-11-05T22:31:55.755Z,13.90
2022-11-05T22:34:24.121Z,13.90
2022-11-05T22:36:52.223Z,13.90
2022-11-05T22:39:20.088Z,13.90
2022-11-05T22:41:47.574Z,13.90
2022-11-05T22:44:16.672Z,13.90
2022-11-05T22:46:44.211Z,13.90
2022-11-05T22:49:12.096Z,13.90
2022-11-05T22:51:40.029Z,13.90
2022-11-05T22:54:08.448Z,13.90
2022-11-05T22:56:40.396Z,13.90
2022-11-05T22:59:10.134Z,13.90
2022-11-05T23:01:37.736Z,13.90
2022-11-05T23:04:05.196Z,13.90
2022-11-05T23:06:51.864Z,13.90
2022-11-05T23:09:42.327Z,13.80
2022-11-05T23:12:24.074Z,13.80
2022-11-05T23:14:52.401Z,13.80
2022-11-05T23:17:38.535Z,13.80
2022-11-05T23:20:26.903Z,13.80
2022-11-05T23:23:12.735Z,13.70
2022-11-05T23:25:40.175Z,13.70
2022-11-05T23:28:10.244Z,13.60
2022-11-05T23:31:02.030Z,13.50
2022-11-05T23:33:33.610Z,13.50
2022-11-05T23:36:19.707Z,13.40
2022-11-05T23:38:47.104Z,13.40
2022-11-05T23:41:32.834Z,13.40
2022-11-05T23:44:18.952Z,13.30
2022-11-05T23:47:04.926Z,13.30
2022-11-05T23:49:32.430Z,13.30
2022-11-05T23:51:59.766Z,13.20
2022-11-05T23:54:27.326Z,13.20
2022-11-05T23:56:54.837Z,13.10
2022-11-05T23:59:22.178Z,13.10
